Time;durP1;ratioP1;P1;durP2;ratioP2;P2;SDS_P1;SDS_P2;PMS_P1;PMS_P2;Temp;Humidity;BMP_temperature;BMP_pressure;BME280_temperature;BME280_humidity;BME280_pressure;Samples;Min_cycle;Max_cycle;Signal;HPM_P1;HPM_P2
2023/04/05 00:00:31;;;;;;;8.55;4.40;;;;;;;;;;5051150;28;20048;-70
2023/04/05 00:02:58;;;;;;;8.55;4.30;;;;;;;;;;5052678;28;20040;-70
2023/04/05 00:05:33;;;;;;;8.52;3.85;;;;;;;;;;5035932;28;20583;-70
2023/04/05 00:08:00;;;;;;;8.90;4.38;;;;;;;;;;5054081;28;20049;-70
2023/04/05 00:10:27;;;;;;;10.30;4.53;;;;;;;;;;5053304;28;20041;-70
2023/04/05 00:12:53;;;;;;;10.10;5.13;;;;;;;;;;5051155;28;20125;-70
2023/04/05 00:15:19;;;;;;;11.43;4.80;;;;;;;;;;5052565;28;20102;-69
2023/04/05 00:17:46;;;;;;;11.13;4.82;;;;;;;;;;5053672;28;20060;-69
2023/04/05 00:20:12;;;;;;;8.90;4.50;;;;;;;;;;5033834;28;20080;-70
2023/04/05 00:22:38;;;;;;;10.85;4.60;;;;;;;;;;5055433;28;20101;-69
2023/04/05 00:25:05;;;;;;;14.77;5.45;;;;;;;;;;5040773;28;20155;-69
2023/04/05 00:27:31;;;;;;;10.35;4.40;;;;;;;;;;5056034;28;20095;-69
2023/04/05 00:29:57;;;;;;;10.00;4.07;;;;;;;;;;5051714;28;20048;-69
2023/04/05 00:32:23;;;;;;;11.43;4.32;;;;;;;;;;5054191;28;20079;-69
2023/04/05 00:34:50;;;;;;;6.93;3.75;;;;;;;;;;5051150;28;20154;-69
2023/04/05 00:37:16;;;;;;;8.73;4.30;;;;;;;;;;5054972;28;20056;-70
2023/04/05 00:39:42;;;;;;;10.32;4.90;;;;;;;;;;5055465;28;21039;-69
2023/04/05 00:42:08;;;;;;;14.80;4.45;;;;;;;;;;5050818;28;20046;-69
2023/04/05 00:44:35;;;;;;;8.68;4.93;;;;;;;;;;5056196;28;20040;-69
2023/04/05 00:47:01;;;;;;;13.63;4.53;;;;;;;;;;5059634;28;20051;-69
2023/04/05 00:49:29;;;;;;;9.27;3.97;;;;;;;;;;5055020;28;20051;-70
2023/04/05 00:51:56;;;;;;;9.43;5.10;;;;;;;;;;5049621;28;20097;-69
2023/04/05 00:54:24;;;;;;;8.93;4.60;;;;;;;;;;5048065;28;20037;-69
2023/04/05 00:56:56;;;;;;;12.25;5.60;;;;;;;;;;5050920;28;20048;-69
2023/04/05 00:59:22;;;;;;;10.15;4.70;;;;;;;;;;5054628;28;20045;-69
2023/04/05 01:01:53;;;;;;;14.23;5.22;;;;;;;;;;5054634;28;20048;-69
2023/04/05 01:04:22;;;;;;;7.88;4.18;;;;;;;;;;5056565;28;20145;-69
2023/04/05 01:06:57;;;;;;;9.38;3.70;;;;;;;;;;5033971;28;20120;-68
2023/04/05 01:09:23;;;;;;;8.68;3.83;;;;;;;;;;5052568;28;20374;-68
2023/04/05 01:11:52;;;;;;;9.07;3.75;;;;;;;;;;5054177;28;20109;-69
2023/04/05 01:14:18;;;;;;;7.32;3.85;;;;;;;;;;5040943;28;20404;-69
2023/04/05 01:16:48;;;;;;;10.68;4.22;;;;;;;;;;5050348;28;20040;-69
2023/04/05 01:19:14;;;;;;;6.75;3.72;;;;;;;;;;5050418;28;20470;-69
2023/04/05 01:21:48;;;;;;;8.75;4.95;;;;;;;;;;5056113;28;20052;-68
2023/04/05 01:24:24;;;;;;;13.65;4.30;;;;;;;;;;5055545;28;20055;-68
2023/04/05 01:26:56;;;;;;;7.28;3.67;;;;;;;;;;5050272;28;20052;-68
2023/04/05 01:29:23;;;;;;;8.25;4.13;;;;;;;;;;5049840;28;20044;-69
2023/04/05 01:32:00;;;;;;;8.20;4.28;;;;;;;;;;5054698;28;20409;-69
2023/04/05 01:34:36;;;;;;;7.88;4.05;;;;;;;;;;5035253;28;20143;-70
2023/04/05 01:37:05;;;;;;;9.55;4.57;;;;;;;;;;5033202;28;20098;-70
2023/04/05 01:39:33;;;;;;;8.27;4.43;;;;;;;;;;5037008;28;20048;-69
2023/04/05 01:42:00;;;;;;;9.65;4.43;;;;;;;;;;5052331;28;20190;-69
2023/04/05 01:44:27;;;;;;;9.98;4.68;;;;;;;;;;5051465;28;20054;-69
2023/04/05 01:46:53;;;;;;;8.77;4.20;;;;;;;;;;5031536;28;20044;-69
2023/04/05 01:49:19;;;;;;;9.63;4.22;;;;;;;;;;5053840;28;20064;-69
2023/04/05 01:51:45;;;;;;;8.38;4.30;;;;;;;;;;5052935;28;20045;-69
2023/04/05 01:54:11;;;;;;;6.75;3.30;;;;;;;;;;5032877;28;20064;-69
2023/04/05 01:56:37;;;;;;;10.55;4.35;;;;;;;;;;5050389;28;20041;-69
2023/04/05 01:59:04;;;;;;;11.77;4.22;;;;;;;;;;5033834;28;20044;-69
2023/04/05 02:01:30;;;;;;;7.50;3.00;;;;;;;;;;5035218;28;20057;-70
2023/04/05 02:03:56;;;;;;;5.78;3.40;;;;;;;;;;5050942;28;20049;-70
2023/04/05 02:06:22;;;;;;;7.32;2.85;;;;;;;;;;5052828;28;20037;-70
2023/04/05 02:08:49;;;;;;;5.82;2.75;;;;;;;;;;5034967;28;20108;-70
2023/04/05 02:11:15;;;;;;;5.82;2.60;;;;;;;;;;5051255;28;20140;-70
2023/04/05 02:13:41;;;;;;;5.60;2.72;;;;;;;;;;5050095;28;20040;-70
2023/04/05 02:16:07;;;;;;;8.40;3.72;;;;;;;;;;5047976;28;20048;-70
2023/04/05 02:18:33;;;;;;;10.43;3.97;;;;;;;;;;5051275;28;20092;-70
2023/04/05 02:21:02;;;;;;;10.18;4.25;;;;;;;;;;5051759;28;20037;-70
2023/04/05 02:23:29;;;;;;;10.25;3.95;;;;;;;;;;5050195;28;20181;-69
2023/04/05 02:25:55;;;;;;;11.32;3.90;;;;;;;;;;5051468;28;20078;-69
2023/04/05 02:28:21;;;;;;;6.68;3.03;;;;;;;;;;5034644;28;21253;-69
2023/04/05 02:30:48;;;;;;;8.13;3.72;;;;;;;;;;5052773;28;20472;-70
2023/04/05 02:33:14;;;;;;;9.77;3.92;;;;;;;;;;5050225;28;20056;-70
2023/04/05 02:35:40;;;;;;;12.68;4.88;;;;;;;;;;5049964;28;20048;-70
2023/04/05 02:38:06;;;;;;;12.80;4.75;;;;;;;;;;5052295;28;20060;-70
2023/04/05 02:40:33;;;;;;;13.95;5.55;;;;;;;;;;5035253;28;20518;-70
2023/04/05 02:42:59;;;;;;;14.07;6.35;;;;;;;;;;5050754;28;20076;-70
2023/04/05 02:45:26;;;;;;;13.73;6.03;;;;;;;;;;5052299;28;20427;-70
2023/04/05 02:47:53;;;;;;;11.38;5.90;;;;;;;;;;5051719;28;20045;-70
2023/04/05 02:50:19;;;;;;;10.23;5.50;;;;;;;;;;5032864;28;20050;-70
2023/04/05 02:52:47;;;;;;;14.05;5.60;;;;;;;;;;5035155;28;20053;-70
2023/04/05 02:55:13;;;;;;;12.15;6.00;;;;;;;;;;5035311;28;20063;-70
2023/04/05 02:57:40;;;;;;;12.23;5.22;;;;;;;;;;5055299;28;21663;-70
2023/04/05 03:00:07;;;;;;;12.05;6.00;;;;;;;;;;5034816;28;20067;-70
2023/04/05 03:02:33;;;;;;;10.27;5.72;;;;;;;;;;5055576;28;20070;-70
2023/04/05 03:05:01;;;;;;;11.48;6.13;;;;;;;;;;5052386;28;20056;-70
2023/04/05 03:07:28;;;;;;;10.73;4.80;;;;;;;;;;5033300;28;20123;-70
2023/04/05 03:09:54;;;;;;;10.40;4.78;;;;;;;;;;5052106;28;20453;-69
2023/04/05 03:12:20;;;;;;;8.63;5.50;;;;;;;;;;5054747;28;20137;-70
2023/04/05 03:14:46;;;;;;;9.93;4.95;;;;;;;;;;5055183;28;20115;-69
2023/04/05 03:17:12;;;;;;;8.82;5.00;;;;;;;;;;5054225;28;20041;-69
2023/04/05 03:19:39;;;;;;;9.93;4.97;;;;;;;;;;5055900;28;20056;-70
2023/04/05 03:22:06;;;;;;;13.15;5.90;;;;;;;;;;5043916;28;20053;-70
2023/04/05 03:24:32;;;;;;;8.95;4.90;;;;;;;;;;5053084;28;20049;-70
2023/04/05 03:27:02;;;;;;;11.57;5.97;;;;;;;;;;5053980;28;20504;-70
2023/04/05 03:29:28;;;;;;;11.93;5.82;;;;;;;;;;5053952;28;20119;-70
2023/04/05 03:31:54;;;;;;;10.60;5.22;;;;;;;;;;5043680;28;20080;-70
2023/04/05 03:34:21;;;;;;;13.85;5.55;;;;;;;;;;5060007;28;20045;-70
2023/04/05 03:36:48;;;;;;;7.80;4.35;;;;;;;;;;5059621;28;20075;-70
2023/04/05 03:39:14;;;;;;;10.35;5.03;;;;;;;;;;5059286;28;20123;-70
2023/04/05 03:41:40;;;;;;;9.13;4.40;;;;;;;;;;5036373;28;20061;-70
2023/04/05 03:44:07;;;;;;;9.85;5.15;;;;;;;;;;5051287;28;20163;-69
2023/04/05 03:46:36;;;;;;;12.07;4.82;;;;;;;;;;5052875;28;20041;-69
2023/04/05 03:49:03;;;;;;;8.63;4.70;;;;;;;;;;5053715;28;20037;-69
2023/04/05 03:51:30;;;;;;;9.05;5.18;;;;;;;;;;5052278;28;20044;-70
2023/04/05 03:53:56;;;;;;;13.48;5.38;;;;;;;;;;5054184;28;20128;-70
2023/04/05 03:56:22;;;;;;;11.05;4.45;;;;;;;;;;5055467;28;20866;-70
2023/04/05 03:58:48;;;;;;;7.53;4.15;;;;;;;;;;5042821;28;20040;-70
2023/04/05 04:01:15;;;;;;;11.32;5.45;;;;;;;;;;5058293;28;20521;-70
2023/04/05 04:03:41;;;;;;;7.90;4.35;;;;;;;;;;5036264;28;20111;-70
2023/04/05 04:06:08;;;;;;;11.32;5.57;;;;;;;;;;5053461;28;20088;-70
2023/04/05 04:08:34;;;;;;;9.32;4.57;;;;;;;;;;5053487;28;20045;-70
2023/04/05 04:11:00;;;;;;;9.48;4.43;;;;;;;;;;5050012;28;20076;-70
2023/04/05 04:13:26;;;;;;;11.48;4.85;;;;;;;;;;5052852;28;20041;-69
2023/04/05 04:15:52;;;;;;;8.77;4.90;;;;;;;;;;5054411;28;20048;-69
2023/04/05 04:18:18;;;;;;;8.73;4.18;;;;;;;;;;5054961;28;20064;-71
2023/04/05 04:20:45;;;;;;;9.45;3.95;;;;;;;;;;5052074;28;20053;-69
2023/04/05 04:23:13;;;;;;;10.95;4.60;;;;;;;;;;5036165;28;20842;-70
2023/04/05 04:25:40;;;;;;;11.02;4.60;;;;;;;;;;5036655;28;20044;-70
2023/04/05 04:28:06;;;;;;;10.63;5.32;;;;;;;;;;5049311;28;20064;-69
2023/04/05 04:30:33;;;;;;;14.65;5.70;;;;;;;;;;5051051;28;20047;-70
2023/04/05 04:33:03;;;;;;;10.15;5.28;;;;;;;;;;5037131;28;20565;-70
2023/04/05 04:35:32;;;;;;;7.28;4.07;;;;;;;;;;5051684;28;20045;-70
2023/04/05 04:38:00;;;;;;;17.63;5.20;;;;;;;;;;5034636;28;20040;-69
2023/04/05 04:40:28;;;;;;;9.20;4.97;;;;;;;;;;5049959;28;20137;-70
2023/04/05 04:42:57;;;;;;;9.18;4.60;;;;;;;;;;5052648;28;20048;-69
2023/04/05 04:45:24;;;;;;;12.32;5.20;;;;;;;;;;5055016;28;20456;-69
2023/04/05 04:47:52;;;;;;;9.00;5.03;;;;;;;;;;5050891;28;20444;-65
2023/04/05 04:50:19;;;;;;;10.57;5.05;;;;;;;;;;5055443;28;20043;-69
2023/04/05 04:52:45;;;;;;;9.93;6.15;;;;;;;;;;5060369;28;20097;-67
2023/04/05 04:55:13;;;;;;;11.20;5.28;;;;;;;;;;5053913;28;20060;-68
2023/04/05 04:57:40;;;;;;;13.30;5.57;;;;;;;;;;5057810;28;20095;-69
2023/04/05 05:00:13;;;;;;;11.77;6.07;;;;;;;;;;5059930;28;20498;-68
2023/04/05 05:02:41;;;;;;;14.13;6.25;;;;;;;;;;5061366;28;20048;-69
2023/04/05 05:05:07;;;;;;;13.48;6.00;;;;;;;;;;5060329;28;20140;-69
2023/04/05 05:07:34;;;;;;;14.90;6.28;;;;;;;;;;5059425;28;20066;-68
2023/04/05 05:10:00;;;;;;;13.60;6.93;;;;;;;;;;5058827;28;20051;-69
2023/04/05 05:12:26;;;;;;;11.00;5.53;;;;;;;;;;5049669;28;20082;-69
2023/04/05 05:14:53;;;;;;;9.98;4.50;;;;;;;;;;5037425;28;20040;-68
2023/04/05 05:17:19;;;;;;;8.73;4.32;;;;;;;;;;5020916;28;20039;-68
2023/04/05 05:19:45;;;;;;;10.55;5.32;;;;;;;;;;5038427;28;20052;-68
2023/04/05 05:22:11;;;;;;;9.82;4.88;;;;;;;;;;5057109;28;20032;-67
2023/04/05 05:24:38;;;;;;;12.85;5.93;;;;;;;;;;5055001;28;20528;-69
2023/04/05 05:27:04;;;;;;;11.77;7.13;;;;;;;;;;5059186;28;20195;-68
2023/04/05 05:29:31;;;;;;;14.15;6.75;;;;;;;;;;5053383;28;20041;-67
2023/04/05 05:31:57;;;;;;;14.73;7.57;;;;;;;;;;5037348;28;20449;-68
2023/04/05 05:34:23;;;;;;;12.40;6.30;;;;;;;;;;5053210;28;20506;-69
2023/04/05 05:36:52;;;;;;;12.82;6.70;;;;;;;;;;5052505;28;20088;-67
2023/04/05 05:39:19;;;;;;;13.80;6.40;;;;;;;;;;5055535;28;20044;-67
2023/04/05 05:41:45;;;;;;;13.57;6.93;;;;;;;;;;5055717;28;20060;-68
2023/04/05 05:44:12;;;;;;;18.10;7.70;;;;;;;;;;5037019;28;20032;-67
2023/04/05 05:46:38;;;;;;;16.88;7.00;;;;;;;;;;5057624;28;20045;-68
2023/04/05 05:49:04;;;;;;;13.63;7.28;;;;;;;;;;5036194;28;20056;-68
2023/04/05 05:51:32;;;;;;;18.63;7.43;;;;;;;;;;5051396;28;20080;-69
2023/04/05 05:53:58;;;;;;;17.70;7.80;;;;;;;;;;5056277;28;20083;-69
2023/04/05 05:56:24;;;;;;;12.63;6.50;;;;;;;;;;5054459;28;20044;-68
2023/04/05 05:58:51;;;;;;;13.63;7.45;;;;;;;;;;5055928;28;20609;-68
2023/04/05 06:01:17;;;;;;;17.48;8.05;;;;;;;;;;5055155;28;20045;-68
2023/04/05 06:03:43;;;;;;;19.90;9.32;;;;;;;;;;5035488;28;20314;-68
2023/04/05 06:06:10;;;;;;;15.57;8.77;;;;;;;;;;5055803;28;20048;-69
2023/04/05 06:08:37;;;;;;;18.45;8.57;;;;;;;;;;5057099;28;20151;-69
2023/04/05 06:11:03;;;;;;;15.43;8.93;;;;;;;;;;5056495;28;20860;-68
2023/04/05 06:13:29;;;;;;;14.35;8.18;;;;;;;;;;5056482;28;20041;-68
2023/04/05 06:15:56;;;;;;;12.05;7.30;;;;;;;;;;5038800;28;20390;-68
2023/04/05 06:18:22;;;;;;;15.13;7.28;;;;;;;;;;5054633;28;20052;-68
2023/04/05 06:20:48;;;;;;;14.13;7.45;;;;;;;;;;5037175;28;20037;-69
2023/04/05 06:23:14;;;;;;;13.52;7.43;;;;;;;;;;5041049;28;21238;-69
2023/04/05 06:25:40;;;;;;;17.73;8.40;;;;;;;;;;5055533;28;20098;-69
2023/04/05 06:28:07;;;;;;;13.13;7.15;;;;;;;;;;5037599;28;20067;-69
2023/04/05 06:30:33;;;;;;;14.98;8.38;;;;;;;;;;5054472;28;20548;-67
2023/04/05 06:33:00;;;;;;;22.40;8.90;;;;;;;;;;5038145;28;20051;-64
2023/04/05 06:35:26;;;;;;;20.70;10.90;;;;;;;;;;5058677;28;20029;-67
2023/04/05 06:37:52;;;;;;;19.75;10.90;;;;;;;;;;5058603;28;20098;-66
2023/04/05 06:40:19;;;;;;;30.10;10.90;;;;;;;;;;5059485;28;20194;-66
2023/04/05 06:42:45;;;;;;;23.38;12.45;;;;;;;;;;5059163;28;20037;-67
2023/04/05 06:45:12;;;;;;;22.58;11.60;;;;;;;;;;5058572;28;20057;-67
2023/04/05 06:47:38;;;;;;;24.58;12.73;;;;;;;;;;5056566;28;20083;-67
2023/04/05 06:50:05;;;;;;;23.63;11.82;;;;;;;;;;5058663;28;20079;-67
2023/04/05 06:52:32;;;;;;;29.20;12.82;;;;;;;;;;5059928;28;20061;-67
2023/04/05 06:54:58;;;;;;;23.08;11.80;;;;;;;;;;5059730;28;20228;-67
2023/04/05 06:57:25;;;;;;;22.73;11.77;;;;;;;;;;5059688;28;20049;-67
2023/04/05 06:59:52;;;;;;;20.20;11.70;;;;;;;;;;5058885;28;20049;-67
2023/04/05 07:02:19;;;;;;;27.38;13.88;;;;;;;;;;5059385;28;20043;-67
2023/04/05 07:04:45;;;;;;;27.83;13.38;;;;;;;;;;5060064;28;20048;-67
2023/04/05 07:07:12;;;;;;;26.17;13.30;;;;;;;;;;5059607;28;20377;-66
2023/04/05 07:09:39;;;;;;;24.33;12.90;;;;;;;;;;5053834;28;20032;-67
2023/04/05 07:12:06;;;;;;;23.90;12.77;;;;;;;;;;5040718;28;20041;-67
2023/04/05 07:14:33;;;;;;;26.05;13.90;;;;;;;;;;5041622;28;20656;-67
2023/04/05 07:16:59;;;;;;;20.88;13.18;;;;;;;;;;5041864;28;20064;-67
2023/04/05 07:19:25;;;;;;;25.23;14.43;;;;;;;;;;5057948;28;20052;-67
2023/04/05 07:21:52;;;;;;;19.98;12.55;;;;;;;;;;5056445;28;20512;-67
2023/04/05 07:24:18;;;;;;;20.65;11.77;;;;;;;;;;5052657;28;20041;-67
2023/04/05 07:26:44;;;;;;;23.88;14.32;;;;;;;;;;5033920;28;20374;-67
2023/04/05 07:29:11;;;;;;;22.20;12.48;;;;;;;;;;5053820;28;20529;-67
2023/04/05 07:31:38;;;;;;;25.45;13.18;;;;;;;;;;5054238;28;20051;-66
2023/04/05 07:34:05;;;;;;;23.63;12.75;;;;;;;;;;5058517;28;20043;-66
2023/04/05 07:36:31;;;;;;;20.65;13.20;;;;;;;;;;5052764;28;20401;-64
2023/04/05 07:38:57;;;;;;;21.73;12.82;;;;;;;;;;5056976;28;20519;-67
2023/04/05 07:41:25;;;;;;;18.05;11.55;;;;;;;;;;5055629;28;20238;-67
2023/04/05 07:43:51;;;;;;;19.33;11.52;;;;;;;;;;5054678;28;20049;-67
2023/04/05 07:46:17;;;;;;;21.63;11.32;;;;;;;;;;5036581;28;20040;-67
2023/04/05 07:48:47;;;;;;;22.15;12.48;;;;;;;;;;5058360;28;20444;-68
2023/04/05 07:51:13;;;;;;;26.50;12.38;;;;;;;;;;5041102;28;20457;-67
2023/04/05 07:53:40;;;;;;;20.67;12.38;;;;;;;;;;5056840;28;20048;-67
2023/04/05 07:56:08;;;;;;;18.05;12.40;;;;;;;;;;5057106;28;20436;-67
2023/04/05 07:58:34;;;;;;;24.27;12.15;;;;;;;;;;5059078;28;20044;-67
2023/04/05 08:01:01;;;;;;;18.13;10.90;;;;;;;;;;5058853;28;20060;-67
2023/04/05 08:03:28;;;;;;;20.30;11.13;;;;;;;;;;5057400;28;20384;-67
2023/04/05 08:05:54;;;;;;;19.58;10.23;;;;;;;;;;5059905;28;20052;-67
2023/04/05 08:08:21;;;;;;;15.93;9.32;;;;;;;;;;5057272;28;20201;-68
2023/04/05 08:10:47;;;;;;;14.27;8.38;;;;;;;;;;5057506;28;20043;-67
2023/04/05 08:13:13;;;;;;;18.80;9.85;;;;;;;;;;5059498;28;20049;-67
2023/04/05 08:15:40;;;;;;;19.80;10.55;;;;;;;;;;5059882;28;20044;-67
2023/04/05 08:18:06;;;;;;;15.55;8.50;;;;;;;;;;5060010;28;20450;-68
2023/04/05 08:20:37;;;;;;;12.68;6.85;;;;;;;;;;5060238;28;20047;-68
2023/04/05 08:23:04;;;;;;;13.45;8.30;;;;;;;;;;5035852;28;20052;-67
2023/04/05 08:25:31;;;;;;;15.15;9.52;;;;;;;;;;5062424;28;20094;-67
2023/04/05 08:27:57;;;;;;;15.65;8.45;;;;;;;;;;5059653;28;20113;-67
2023/04/05 08:30:23;;;;;;;13.38;8.70;;;;;;;;;;5037244;28;20041;-67
2023/04/05 08:32:49;;;;;;;18.75;8.85;;;;;;;;;;5061170;28;20067;-67
2023/04/05 08:35:15;;;;;;;14.43;8.38;;;;;;;;;;5042096;28;20051;-67
2023/04/05 08:37:41;;;;;;;17.40;9.45;;;;;;;;;;5042362;28;20055;-67
2023/04/05 08:40:08;;;;;;;13.10;7.75;;;;;;;;;;5037226;28;21053;-67
2023/04/05 08:42:36;;;;;;;12.43;8.73;;;;;;;;;;5056395;28;20058;-67
2023/04/05 08:45:03;;;;;;;14.95;8.00;;;;;;;;;;5039205;28;20048;-67
2023/04/05 08:47:30;;;;;;;13.90;8.07;;;;;;;;;;5057473;28;20395;-67
2023/04/05 08:49:56;;;;;;;16.23;8.55;;;;;;;;;;5058900;28;20044;-67
2023/04/05 08:52:22;;;;;;;12.23;7.38;;;;;;;;;;5057723;28;20041;-67
2023/04/05 08:54:48;;;;;;;13.50;7.80;;;;;;;;;;5052747;28;20056;-67
2023/04/05 08:57:15;;;;;;;22.92;10.80;;;;;;;;;;5057397;28;21117;-67
2023/04/05 08:59:42;;;;;;;14.10;8.85;;;;;;;;;;5044518;28;21192;-68
2023/04/05 09:02:13;;;;;;;12.82;8.10;;;;;;;;;;5057045;28;20055;-68
2023/04/05 09:04:43;;;;;;;13.50;9.05;;;;;;;;;;5038411;28;20036;-68
2023/04/05 09:07:11;;;;;;;9.95;6.28;;;;;;;;;;5058762;28;20442;-68
2023/04/05 09:09:37;;;;;;;12.50;6.22;;;;;;;;;;5057618;28;20079;-65
2023/04/05 09:12:04;;;;;;;13.02;7.32;;;;;;;;;;5056640;28;20094;-68
2023/04/05 09:14:31;;;;;;;12.57;6.95;;;;;;;;;;5056154;28;20426;-68
2023/04/05 09:16:57;;;;;;;10.88;6.38;;;;;;;;;;5056600;28;20119;-68
2023/04/05 09:19:23;;;;;;;13.05;7.20;;;;;;;;;;5056619;28;20084;-68
2023/04/05 09:21:58;;;;;;;14.50;7.43;;;;;;;;;;5053855;28;20049;-68
2023/04/05 09:24:40;;;;;;;13.50;6.85;;;;;;;;;;5057102;28;20041;-68
2023/04/05 09:27:08;;;;;;;11.95;7.10;;;;;;;;;;5055397;28;20051;-68
2023/04/05 09:29:34;;;;;;;11.52;7.03;;;;;;;;;;5055056;28;20037;-68
2023/04/05 09:32:02;;;;;;;13.00;7.47;;;;;;;;;;5059265;28;20110;-67
2023/04/05 09:34:30;;;;;;;11.50;7.25;;;;;;;;;;5062488;28;20053;-67
2023/04/05 09:36:57;;;;;;;15.20;6.70;;;;;;;;;;5058752;28;20056;-67
2023/04/05 09:39:30;;;;;;;13.65;7.43;;;;;;;;;;5059721;28;20040;-67
2023/04/05 09:42:08;;;;;;;12.55;6.60;;;;;;;;;;5054924;28;20579;-67
2023/04/05 09:44:50;;;;;;;12.35;6.50;;;;;;;;;;5054885;28;20044;-68
2023/04/05 09:47:17;;;;;;;13.30;7.40;;;;;;;;;;5054512;28;20124;-68
2023/04/05 09:49:43;;;;;;;9.98;5.30;;;;;;;;;;5058409;28;20495;-67
2023/04/05 09:52:23;;;;;;;12.35;5.32;;;;;;;;;;5055726;28;20488;-67
2023/04/05 09:54:50;;;;;;;11.57;5.63;;;;;;;;;;5040301;28;20055;-67
2023/04/05 09:57:17;;;;;;;9.88;6.93;;;;;;;;;;5053467;28;20084;-67
2023/04/05 09:59:44;;;;;;;8.80;6.43;;;;;;;;;;5052874;28;20045;-67
2023/04/05 10:02:11;;;;;;;15.52;7.10;;;;;;;;;;5060108;28;20433;-68
2023/04/05 10:04:40;;;;;;;15.90;7.53;;;;;;;;;;5060806;28;20041;-68
2023/04/05 10:07:06;;;;;;;12.95;7.30;;;;;;;;;;5044035;28;20055;-67
2023/04/05 10:09:32;;;;;;;11.85;6.18;;;;;;;;;;5064603;28;20048;-67
2023/04/05 10:11:59;;;;;;;12.27;6.90;;;;;;;;;;5047154;28;20142;-67
2023/04/05 10:14:26;;;;;;;11.98;7.15;;;;;;;;;;5067770;28;20036;-68
2023/04/05 10:16:56;;;;;;;19.67;7.53;;;;;;;;;;5041570;28;20059;-68
2023/04/05 10:19:27;;;;;;;10.80;6.95;;;;;;;;;;5044605;28;21274;-68
2023/04/05 10:21:54;;;;;;;9.32;6.57;;;;;;;;;;5066361;28;20048;-67
2023/04/05 10:24:35;;;;;;;13.68;6.80;;;;;;;;;;5064775;28;20182;-66
2023/04/05 10:27:05;;;;;;;11.02;7.07;;;;;;;;;;5060344;28;20056;-67
2023/04/05 10:29:40;;;;;;;10.90;7.07;;;;;;;;;;5039987;28;20472;-66
2023/04/05 10:32:12;;;;;;;11.95;7.05;;;;;;;;;;5057747;28;20458;-67
2023/04/05 10:34:45;;;;;;;11.38;7.72;;;;;;;;;;5059634;28;20043;-67
2023/04/05 10:37:22;;;;;;;11.90;7.00;;;;;;;;;;5061196;28;20044;-67
2023/04/05 10:39:48;;;;;;;12.32;7.00;;;;;;;;;;5063207;28;20032;-67
2023/04/05 10:42:32;;;;;;;12.48;6.03;;;;;;;;;;5045332;28;20037;-67
2023/04/05 10:45:01;;;;;;;12.07;6.05;;;;;;;;;;5064476;28;20561;-67
2023/04/05 10:47:28;;;;;;;10.75;6.22;;;;;;;;;;5040675;28;20052;-66
2023/04/05 10:49:56;;;;;;;10.70;6.13;;;;;;;;;;5041154;28;20045;-67
2023/04/05 10:52:22;;;;;;;11.25;4.97;;;;;;;;;;5058181;28;20047;-67
2023/04/05 10:54:49;;;;;;;13.07;6.35;;;;;;;;;;5038668;28;20048;-67
2023/04/05 10:57:19;;;;;;;8.25;5.72;;;;;;;;;;5038691;28;20097;-67
2023/04/05 10:59:46;;;;;;;9.57;5.97;;;;;;;;;;5059796;28;20037;-67
2023/04/05 11:02:13;;;;;;;10.90;6.40;;;;;;;;;;5060455;28;20037;-67
2023/04/05 11:04:40;;;;;;;10.88;5.45;;;;;;;;;;5062401;28;20063;-67
2023/04/05 11:07:11;;;;;;;9.13;6.20;;;;;;;;;;5064844;28;20056;-67
2023/04/05 11:09:39;;;;;;;11.85;5.65;;;;;;;;;;5058424;28;21882;-67
2023/04/05 11:12:05;;;;;;;9.40;5.32;;;;;;;;;;5040825;28;20369;-68
2023/04/05 11:14:35;;;;;;;8.95;5.43;;;;;;;;;;5042404;28;20045;-68
2023/04/05 11:17:02;;;;;;;13.48;5.35;;;;;;;;;;5039250;28;20569;-67
2023/04/05 11:19:43;;;;;;;9.68;5.47;;;;;;;;;;5040230;28;20057;-67
2023/04/05 11:22:10;;;;;;;12.45;5.97;;;;;;;;;;5059450;28;20041;-68
2023/04/05 11:24:54;;;;;;;11.02;5.78;;;;;;;;;;5054535;28;20128;-68
2023/04/05 11:27:20;;;;;;;;;;;;;;;;;;5058961;28;20125;-68
2023/04/05 11:29:53;;;;;;;8.25;5.30;;;;;;;;;;5056677;28;20415;-67
2023/04/05 11:32:19;;;;;;;;;;;;;;;;;;5059845;28;20036;-67
2023/04/05 11:34:58;;;;;;;7.03;5.28;;;;;;;;;;5053485;28;19977;-67
2023/04/05 11:37:44;;;;;;;10.55;5.25;;;;;;;;;;5061776;28;20431;-67
2023/04/05 11:40:23;;;;;;;10.50;5.18;;;;;;;;;;5061365;28;20071;-68
2023/04/05 11:42:57;;;;;;;7.68;4.88;;;;;;;;;;5058192;28;20121;-67
2023/04/05 11:45:23;;;;;;;8.13;5.40;;;;;;;;;;5059109;28;20041;-68
2023/04/05 11:47:50;;;;;;;7.80;5.13;;;;;;;;;;5056737;28;20045;-67
2023/04/05 11:50:16;;;;;;;10.68;5.88;;;;;;;;;;5053583;28;20178;-67
2023/04/05 11:52:42;;;;;;;8.68;5.32;;;;;;;;;;5058403;28;20059;-68
2023/04/05 11:55:10;;;;;;;10.95;5.70;;;;;;;;;;5061372;28;20036;-68
2023/04/05 11:57:36;;;;;;;8.00;4.40;;;;;;;;;;5058320;28;20040;-67
2023/04/05 12:00:03;;;;;;;9.02;5.28;;;;;;;;;;5037275;28;20060;-67
2023/04/05 12:02:33;;;;;;;7.70;5.68;;;;;;;;;;5058819;28;20507;-67
2023/04/05 12:05:00;;;;;;;8.25;5.28;;;;;;;;;;5042636;28;20127;-68
2023/04/05 12:07:28;;;;;;;11.60;5.15;;;;;;;;;;5041784;28;20341;-67
2023/04/05 12:10:01;;;;;;;10.48;5.82;;;;;;;;;;5058068;28;20056;-67
2023/04/05 12:12:28;;;;;;;11.05;5.55;;;;;;;;;;5056003;28;20041;-68
2023/04/05 12:14:59;;;;;;;9.93;5.40;;;;;;;;;;5039386;28;20454;-68
2023/04/05 12:17:37;;;;;;;9.85;5.07;;;;;;;;;;5052716;28;20060;-67
2023/04/05 12:20:04;;;;;;;8.45;5.55;;;;;;;;;;5057268;28;20044;-67
2023/04/05 12:22:30;;;;;;;8.77;5.43;;;;;;;;;;5059089;28;20044;-67
2023/04/05 12:24:56;;;;;;;8.70;5.10;;;;;;;;;;5055376;28;20086;-67
2023/04/05 12:27:23;;;;;;;10.18;5.57;;;;;;;;;;5050649;28;20127;-67
2023/04/05 12:30:05;;;;;;;9.27;5.95;;;;;;;;;;5054199;28;20194;-67
2023/04/05 12:32:36;;;;;;;9.20;6.03;;;;;;;;;;5035170;28;20525;-67
2023/04/05 12:35:05;;;;;;;6.63;4.82;;;;;;;;;;5056453;28;20037;-67
2023/04/05 12:37:33;;;;;;;8.07;5.93;;;;;;;;;;5057669;28;20048;-68
2023/04/05 12:40:02;;;;;;;11.80;5.80;;;;;;;;;;5058626;28;20075;-67
2023/04/05 12:42:31;;;;;;;9.15;6.35;;;;;;;;;;5059686;28;20053;-68
2023/04/05 12:45:05;;;;;;;9.38;5.97;;;;;;;;;;5041060;28;20041;-68
2023/04/05 12:47:34;;;;;;;9.50;5.80;;;;;;;;;;5055808;28;20110;-67
2023/04/05 12:50:11;;;;;;;13.13;6.68;;;;;;;;;;5037915;28;20040;-68
2023/04/05 12:52:37;;;;;;;10.18;6.13;;;;;;;;;;5053799;28;20048;-67
2023/04/05 12:55:04;;;;;;;9.20;5.80;;;;;;;;;;5056270;28;20041;-67
2023/04/05 12:57:31;;;;;;;8.07;5.60;;;;;;;;;;5057111;28;20037;-67
2023/04/05 12:59:57;;;;;;;9.23;5.70;;;;;;;;;;5056662;28;20040;-67
2023/04/05 13:02:23;;;;;;;10.02;5.30;;;;;;;;;;5058393;28;20083;-67
2023/04/05 13:04:49;;;;;;;14.40;6.32;;;;;;;;;;5056143;28;20361;-67
2023/04/05 13:07:16;;;;;;;10.32;6.22;;;;;;;;;;5053828;28;20515;-67
2023/04/05 13:09:42;;;;;;;9.05;5.47;;;;;;;;;;5057237;28;20049;-67
2023/04/05 13:12:08;;;;;;;8.13;5.55;;;;;;;;;;5040037;28;20052;-68
2023/04/05 13:14:34;;;;;;;11.07;5.32;;;;;;;;;;5058201;28;20444;-68
2023/04/05 13:17:00;;;;;;;9.20;5.22;;;;;;;;;;5054790;28;20455;-68
2023/04/05 13:19:26;;;;;;;8.23;5.18;;;;;;;;;;5060268;28;20404;-68
2023/04/05 13:21:52;;;;;;;9.30;5.90;;;;;;;;;;5051965;28;20061;-67
2023/04/05 13:24:18;;;;;;;7.20;4.90;;;;;;;;;;5039764;28;20495;-68
2023/04/05 13:26:45;;;;;;;7.93;5.75;;;;;;;;;;5054196;28;20431;-67
2023/04/05 13:29:11;;;;;;;7.68;5.00;;;;;;;;;;5057179;28;20141;-86
2023/04/05 13:31:37;;;;;;;11.48;6.03;;;;;;;;;;5042277;28;20044;-65
2023/04/05 13:34:03;;;;;;;8.00;5.30;;;;;;;;;;5056727;28;20045;-67
2023/04/05 13:36:30;;;;;;;8.18;5.20;;;;;;;;;;5055741;28;20036;-68
2023/04/05 13:38:56;;;;;;;10.63;5.15;;;;;;;;;;5056310;28;20039;-67
2023/04/05 13:41:22;;;;;;;9.45;5.97;;;;;;;;;;5059235;28;20166;-67
2023/04/05 13:43:48;;;;;;;9.73;5.53;;;;;;;;;;5040936;28;20044;-67
2023/04/05 13:46:14;;;;;;;9.10;5.72;;;;;;;;;;5054343;28;20048;-67
2023/04/05 13:48:40;;;;;;;8.63;5.30;;;;;;;;;;5053249;28;20492;-67
2023/04/05 13:51:07;;;;;;;9.70;5.75;;;;;;;;;;5032040;28;20040;-67
2023/04/05 13:53:33;;;;;;;7.80;5.20;;;;;;;;;;5041814;28;20391;-67
2023/04/05 13:55:59;;;;;;;7.70;5.20;;;;;;;;;;5039774;28;20056;-67
2023/04/05 13:58:25;;;;;;;14.35;5.60;;;;;;;;;;5039588;28;20057;-67
2023/04/05 14:00:52;;;;;;;9.20;5.95;;;;;;;;;;5059282;28;20060;-67
2023/04/05 14:03:18;;;;;;;8.10;5.10;;;;;;;;;;5056835;28;20040;-67
2023/04/05 14:05:44;;;;;;;8.98;5.68;;;;;;;;;;5057686;28;20047;-67
2023/04/05 14:08:10;;;;;;;8.30;5.28;;;;;;;;;;5053152;28;20036;-67
2023/04/05 14:10:36;;;;;;;7.72;4.75;;;;;;;;;;5031838;28;20174;-67
2023/04/05 14:13:03;;;;;;;10.82;5.22;;;;;;;;;;5048108;28;20044;-67
2023/04/05 14:15:29;;;;;;;11.45;5.40;;;;;;;;;;5054637;28;20084;-68
2023/04/05 14:17:55;;;;;;;7.43;4.95;;;;;;;;;;5049204;28;20060;-67
2023/04/05 14:20:21;;;;;;;12.20;5.72;;;;;;;;;;5055414;28;20049;-66
2023/04/05 14:22:47;;;;;;;7.90;4.82;;;;;;;;;;5034585;28;20036;-67
2023/04/05 14:25:13;;;;;;;13.77;5.85;;;;;;;;;;5036697;28;20118;-66
2023/04/05 14:27:41;;;;;;;9.95;5.57;;;;;;;;;;5036329;28;20057;-67
2023/04/05 14:30:08;;;;;;;8.10;4.95;;;;;;;;;;5038934;28;20170;-68
2023/04/05 14:32:34;;;;;;;9.48;4.88;;;;;;;;;;5040900;28;20055;-67
2023/04/05 14:35:00;;;;;;;8.40;4.95;;;;;;;;;;5059356;28;20048;-68